Airfield :
LOGIN :

Register | Disclaimer

   EN    FR    IT 

 










Legend :    VFR   Marginal VFR   IFR   Intensive IFR   Very Intensive IFR
Visi :
Ceiling :
>= 8 km
>= 3000ft
5 to 8 km
1000 to 3000 ft
1500m to 5 km
500 to 1000 ft
800 to 1500m
200 to 500 ft
< 800m
< 200 ft
Symbols :   Thunderstorms  Fog  Heavy snow  Heavy precipitations  Wind > 20 kt
SIGMETs :     Misc.  Thunderstorms  Icing  Turbulence  Mountain Waves  Volcanic Ashes






- Airport Elevation : 158 ft
- IATA code : QAR


EHDL - Deelen Airbase

CURRENT METAR :
  • 250325Z AUTO 20005KT 120V190 8000 BR NCD 08/07 Q1012 BLU

EXPIRED METARs :
  • 250255Z AUTO VRB02KT 5000 BR NCD 08/07 Q1012 WHT
  • 250225Z AUTO 18002KT 4600 BR NCD 08/07 Q1012 GRN
  • 250155Z AUTO VRB02KT 7000 BR NCD 08/07 Q1012 WHT
  • 250125Z AUTO VRB02KT 7000 BR NCD 07/07 Q1012 WHT
  • 250055Z AUTO VRB01KT 5000 BR NCD 08/08 Q1012 WHT

Expired Forecast.



MET'MAP, your aeronautical weather chart ! - Copyright ORBIFLY December 2007 - Disclaimer

ORBIFLY MET'MAP TEAM :

Programming & Development : Alexandra Zaïnal
Original concept : Baudouin d'Aumeries
Technical & hardware support : Manuel Goepfert
Assistance : Marc-Olivier Méhu

Contact : metmap@orbifly.com




SOURCES & CREDITS :

   NOAA